Terminal Aerodrome Forecast
Issued by NWS Omaha/Valley, NE

Home | Current Version | Previous Version | Graphics & Text | Print | Product List | Glossary On
Versions: 1 2 3 4 5 6 7 8 9 10 11 12 13 14 15 16 17 18 19 20 21 22 23 24 25 26 27 28 29 30 31 32
451
FTUS43 KOAX 191120
TAFOFK
TAF
KOFK 191120Z 1912/2012 VRB03KT P6SM SKC
     FM191700 16011KT P6SM SKC
     FM200300 15007KT P6SM VCTS BKN100CB
     FM200600 18009KT P6SM SCT100=

USA.gov is the U.S. government's official web portal to all federal, state and local government web resources and services.